sensor_id;sensor_type;location;lat;lon;timestamp;P1;P2;P0
44045;PMS7003;29709;52.396;16.796;2022-10-16T00:01:13;10;10;8
44045;PMS7003;29709;52.396;16.796;2022-10-16T00:04:17;5;5;4
44045;PMS7003;29709;52.396;16.796;2022-10-16T00:07:20;11;9;7
44045;PMS7003;29709;52.396;16.796;2022-10-16T00:10:23;11;9;7
44045;PMS7003;29709;52.396;16.796;2022-10-16T00:13:26;10;9;6
44045;PMS7003;29709;52.396;16.796;2022-10-16T00:16:29;11;9;8
44045;PMS7003;29709;52.396;16.796;2022-10-16T00:19:33;11;10;7
44045;PMS7003;29709;52.396;16.796;2022-10-16T00:23:04;10;9;6
44045;PMS7003;29709;52.396;16.796;2022-10-16T00:26:09;10;8;6
44045;PMS7003;29709;52.396;16.796;2022-10-16T00:29:15;9;8;6
44045;PMS7003;29709;52.396;16.796;2022-10-16T00:32:18;9;7;5
44045;PMS7003;29709;52.396;16.796;2022-10-16T00:35:22;10;8;6
44045;PMS7003;29709;52.396;16.796;2022-10-16T00:38:25;7;7;5
44045;PMS7003;29709;52.396;16.796;2022-10-16T00:41:29;9;5;4
44045;PMS7003;29709;52.396;16.796;2022-10-16T00:48:13;9;7;6
44045;PMS7003;29709;52.396;16.796;2022-10-16T00:51:18;9;8;5
44045;PMS7003;29709;52.396;16.796;2022-10-16T00:54:26;8;7;5
44045;PMS7003;29709;52.396;16.796;2022-10-16T00:57:32;12;7;5
44045;PMS7003;29709;52.396;16.796;2022-10-16T01:00:36;8;6;5
44045;PMS7003;29709;52.396;16.796;2022-10-16T01:03:38;6;6;5
44045;PMS7003;29709;52.396;16.796;2022-10-16T01:10:29;8;6;5
44045;PMS7003;29709;52.396;16.796;2022-10-16T01:13:41;8;7;6
44045;PMS7003;29709;52.396;16.796;2022-10-16T01:27:02;9;6;5
44045;PMS7003;29709;52.396;16.796;2022-10-16T01:30:14;5;5;4
44045;PMS7003;29709;52.396;16.796;2022-10-16T01:33:30;7;6;4
44045;PMS7003;29709;52.396;16.796;2022-10-16T01:36:45;9;6;5
44045;PMS7003;29709;52.396;16.796;2022-10-16T01:39:52;8;6;5
44045;PMS7003;29709;52.396;16.796;2022-10-16T01:46:12;4;2;2
44045;PMS7003;29709;52.396;16.796;2022-10-16T01:49:20;31;26;18
44045;PMS7003;29709;52.396;16.796;2022-10-16T01:52:25;10;9;7
44045;PMS7003;29709;52.396;16.796;2022-10-16T01:55:32;7;7;6
44045;PMS7003;29709;52.396;16.796;2022-10-16T01:58:49;8;7;5
44045;PMS7003;29709;52.396;16.796;2022-10-16T02:01:52;9;7;6
44045;PMS7003;29709;52.396;16.796;2022-10-16T02:08:13;6;4;2
44045;PMS7003;29709;52.396;16.796;2022-10-16T02:11:41;8;6;4
44045;PMS7003;29709;52.396;16.796;2022-10-16T02:14:45;10;6;5
44045;PMS7003;29709;52.396;16.796;2022-10-16T02:17:47;5;5;4
44045;PMS7003;29709;52.396;16.796;2022-10-16T02:24:08;5;5;4
44045;PMS7003;29709;52.396;16.796;2022-10-16T02:33:50;11;7;5
44045;PMS7003;29709;52.396;16.796;2022-10-16T02:36:57;7;7;5
44045;PMS7003;29709;52.396;16.796;2022-10-16T02:40:02;7;5;5
44045;PMS7003;29709;52.396;16.796;2022-10-16T02:43:32;5;5;4
44045;PMS7003;29709;52.396;16.796;2022-10-16T02:46:36;8;6;5
44045;PMS7003;29709;52.396;16.796;2022-10-16T02:49:39;7;4;3
44045;PMS7003;29709;52.396;16.796;2022-10-16T02:52:42;9;6;5
44045;PMS7003;29709;52.396;16.796;2022-10-16T02:55:45;8;7;5
44045;PMS7003;29709;52.396;16.796;2022-10-16T02:58:48;9;8;6
44045;PMS7003;29709;52.396;16.796;2022-10-16T03:01:51;7;7;5
44045;PMS7003;29709;52.396;16.796;2022-10-16T03:04:54;8;7;5
44045;PMS7003;29709;52.396;16.796;2022-10-16T03:07:57;10;8;7
44045;PMS7003;29709;52.396;16.796;2022-10-16T03:11:03;12;7;6
44045;PMS7003;29709;52.396;16.796;2022-10-16T03:14:32;10;9;7
44045;PMS7003;29709;52.396;16.796;2022-10-16T03:17:35;9;8;6
44045;PMS7003;29709;52.396;16.796;2022-10-16T03:20:38;6;3;2
44045;PMS7003;29709;52.396;16.796;2022-10-16T03:23:41;7;7;5
44045;PMS7003;29709;52.396;16.796;2022-10-16T03:26:44;10;7;6
44045;PMS7003;29709;52.396;16.796;2022-10-16T03:29:46;10;8;5
44045;PMS7003;29709;52.396;16.796;2022-10-16T03:32:49;10;9;6
44045;PMS7003;29709;52.396;16.796;2022-10-16T03:35:56;7;6;5
44045;PMS7003;29709;52.396;16.796;2022-10-16T03:38:59;8;7;6
44045;PMS7003;29709;52.396;16.796;2022-10-16T03:42:02;9;8;6
44045;PMS7003;29709;52.396;16.796;2022-10-16T03:45:31;7;7;5
44045;PMS7003;29709;52.396;16.796;2022-10-16T03:48:34;10;7;5
44045;PMS7003;29709;52.396;16.796;2022-10-16T03:51:37;11;8;6
44045;PMS7003;29709;52.396;16.796;2022-10-16T03:54:40;7;6;5
44045;PMS7003;29709;52.396;16.796;2022-10-16T03:57:43;8;8;6
44045;PMS7003;29709;52.396;16.796;2022-10-16T04:00:46;9;8;5
44045;PMS7003;29709;52.396;16.796;2022-10-16T04:03:52;10;9;6
44045;PMS7003;29709;52.396;16.796;2022-10-16T04:06:55;12;7;5
44045;PMS7003;29709;52.396;16.796;2022-10-16T04:09:58;7;6;5
44045;PMS7003;29709;52.396;16.796;2022-10-16T04:13:01;9;8;5
44045;PMS7003;29709;52.396;16.796;2022-10-16T04:16:30;9;8;5
44045;PMS7003;29709;52.396;16.796;2022-10-16T04:19:33;9;8;6
44045;PMS7003;29709;52.396;16.796;2022-10-16T04:22:36;8;6;5
44045;PMS7003;29709;52.396;16.796;2022-10-16T04:25:39;8;6;5
44045;PMS7003;29709;52.396;16.796;2022-10-16T04:28:42;9;7;6
44045;PMS7003;29709;52.396;16.796;2022-10-16T04:31:45;7;7;5
44045;PMS7003;29709;52.396;16.796;2022-10-16T04:34:49;8;7;5
44045;PMS7003;29709;52.396;16.796;2022-10-16T04:37:52;8;6;6
44045;PMS7003;29709;52.396;16.796;2022-10-16T04:40:55;8;7;6
44045;PMS7003;29709;52.396;16.796;2022-10-16T04:43:58;8;7;5
44045;PMS7003;29709;52.396;16.796;2022-10-16T04:47:00;7;6;5
44045;PMS7003;29709;52.396;16.796;2022-10-16T04:50:29;8;7;5
44045;PMS7003;29709;52.396;16.796;2022-10-16T04:53:32;9;7;6
44045;PMS7003;29709;52.396;16.796;2022-10-16T04:56:36;10;8;6
44045;PMS7003;29709;52.396;16.796;2022-10-16T04:59:49;9;7;5
44045;PMS7003;29709;52.396;16.796;2022-10-16T05:02:52;8;7;5
44045;PMS7003;29709;52.396;16.796;2022-10-16T05:05:55;8;8;5
44045;PMS7003;29709;52.396;16.796;2022-10-16T05:08:59;8;8;6
44045;PMS7003;29709;52.396;16.796;2022-10-16T05:12:02;9;6;5
44045;PMS7003;29709;52.396;16.796;2022-10-16T05:15:06;8;7;5
44045;PMS7003;29709;52.396;16.796;2022-10-16T05:18:34;11;8;6
44045;PMS7003;29709;52.396;16.796;2022-10-16T05:21:37;9;7;5
44045;PMS7003;29709;52.396;16.796;2022-10-16T05:24:40;8;8;6
44045;PMS7003;29709;52.396;16.796;2022-10-16T05:27:43;7;7;5
44045;PMS7003;29709;52.396;16.796;2022-10-16T05:30:52;7;6;5
44045;PMS7003;29709;52.396;16.796;2022-10-16T05:37:04;7;6;5
44045;PMS7003;29709;52.396;16.796;2022-10-16T05:40:08;7;7;5
44045;PMS7003;29709;52.396;16.796;2022-10-16T05:43:37;9;7;6
44045;PMS7003;29709;52.396;16.796;2022-10-16T05:46:40;9;8;5
44045;PMS7003;29709;52.396;16.796;2022-10-16T05:49:43;7;7;5
44045;PMS7003;29709;52.396;16.796;2022-10-16T05:52:46;8;6;5
44045;PMS7003;29709;52.396;16.796;2022-10-16T05:55:52;4;4;3
44045;PMS7003;29709;52.396;16.796;2022-10-16T05:58:56;7;5;5
44045;PMS7003;29709;52.396;16.796;2022-10-16T06:01:59;5;4;3
44045;PMS7003;29709;52.396;16.796;2022-10-16T06:05:02;8;7;4
44045;PMS7003;29709;52.396;16.796;2022-10-16T06:08:05;7;6;5
44045;PMS7003;29709;52.396;16.796;2022-10-16T06:11:09;7;6;5
44045;PMS7003;29709;52.396;16.796;2022-10-16T06:14:38;9;6;5
44045;PMS7003;29709;52.396;16.796;2022-10-16T06:17:41;8;6;4
44045;PMS7003;29709;52.396;16.796;2022-10-16T06:20:44;5;4;3
44045;PMS7003;29709;52.396;16.796;2022-10-16T06:23:47;6;5;4
44045;PMS7003;29709;52.396;16.796;2022-10-16T06:26:50;6;6;5
44045;PMS7003;29709;52.396;16.796;2022-10-16T06:29:53;9;6;5
44045;PMS7003;29709;52.396;16.796;2022-10-16T06:32:56;8;8;6
44045;PMS7003;29709;52.396;16.796;2022-10-16T06:36:00;6;6;4
44045;PMS7003;29709;52.396;16.796;2022-10-16T06:39:05;9;8;6
44045;PMS7003;29709;52.396;16.796;2022-10-16T06:42:09;8;8;6
44045;PMS7003;29709;52.396;16.796;2022-10-16T06:45:37;9;7;6
44045;PMS7003;29709;52.396;16.796;2022-10-16T06:48:40;8;8;6
44045;PMS7003;29709;52.396;16.796;2022-10-16T06:51:43;9;8;5
44045;PMS7003;29709;52.396;16.796;2022-10-16T06:54:46;7;7;5
44045;PMS7003;29709;52.396;16.796;2022-10-16T06:57:49;8;6;5
44045;PMS7003;29709;52.396;16.796;2022-10-16T07:00:55;9;8;6
44045;PMS7003;29709;52.396;16.796;2022-10-16T07:03:59;7;7;5
44045;PMS7003;29709;52.396;16.796;2022-10-16T07:07:05;4;3;2
44045;PMS7003;29709;52.396;16.796;2022-10-16T07:10:08;3;1;0
44045;PMS7003;29709;52.396;16.796;2022-10-16T07:13:42;4;3;2
44045;PMS7003;29709;52.396;16.796;2022-10-16T07:16:46;6;6;5
44045;PMS7003;29709;52.396;16.796;2022-10-16T07:19:50;7;6;5
44045;PMS7003;29709;52.396;16.796;2022-10-16T07:22:55;5;5;3
44045;PMS7003;29709;52.396;16.796;2022-10-16T07:25:58;12;9;7
44045;PMS7003;29709;52.396;16.796;2022-10-16T07:29:03;8;7;5
44045;PMS7003;29709;52.396;16.796;2022-10-16T07:32:08;11;9;7
44045;PMS7003;29709;52.396;16.796;2022-10-16T07:35:13;12;7;6
44045;PMS7003;29709;52.396;16.796;2022-10-16T07:38:47;7;5;4
44045;PMS7003;29709;52.396;16.796;2022-10-16T07:41:50;7;6;3
44045;PMS7003;29709;52.396;16.796;2022-10-16T07:44:54;7;6;5
44045;PMS7003;29709;52.396;16.796;2022-10-16T07:47:59;8;7;5
44045;PMS7003;29709;52.396;16.796;2022-10-16T07:51:05;8;7;5
44045;PMS7003;29709;52.396;16.796;2022-10-16T07:54:09;8;7;5
44045;PMS7003;29709;52.396;16.796;2022-10-16T07:57:14;7;6;6
44045;PMS7003;29709;52.396;16.796;2022-10-16T08:00:22;8;7;6
44045;PMS7003;29709;52.396;16.796;2022-10-16T08:03:52;9;8;6
44045;PMS7003;29709;52.396;16.796;2022-10-16T08:06:55;10;9;7
44045;PMS7003;29709;52.396;16.796;2022-10-16T08:09:59;8;8;5
44045;PMS7003;29709;52.396;16.796;2022-10-16T08:13:04;9;8;6
44045;PMS7003;29709;52.396;16.796;2022-10-16T08:16:09;10;9;6
44045;PMS7003;29709;52.396;16.796;2022-10-16T08:19:14;7;7;5
44045;PMS7003;29709;52.396;16.796;2022-10-16T08:22:19;9;8;7
44045;PMS7003;29709;52.396;16.796;2022-10-16T08:25:24;7;6;5
44045;PMS7003;29709;52.396;16.796;2022-10-16T08:28:58;14;12;10
44045;PMS7003;29709;52.396;16.796;2022-10-16T08:32:01;13;13;10
44045;PMS7003;29709;52.396;16.796;2022-10-16T08:35:06;12;10;8
44045;PMS7003;29709;52.396;16.796;2022-10-16T08:38:10;14;11;9
44045;PMS7003;29709;52.396;16.796;2022-10-16T08:51:32;6;6;5
44045;PMS7003;29709;52.396;16.796;2022-10-16T08:54:39;6;6;4
44045;PMS7003;29709;52.396;16.796;2022-10-16T08:57:45;7;6;4
44045;PMS7003;29709;52.396;16.796;2022-10-16T09:04:35;10;7;6
44045;PMS7003;29709;52.396;16.796;2022-10-16T09:07:48;7;6;5
44045;PMS7003;29709;52.396;16.796;2022-10-16T09:10:59;4;4;2
44045;PMS7003;29709;52.396;16.796;2022-10-16T09:24:20;5;5;4
44045;PMS7003;29709;52.396;16.796;2022-10-16T09:27:26;9;6;5
44045;PMS7003;29709;52.396;16.796;2022-10-16T09:30:29;8;6;5
44045;PMS7003;29709;52.396;16.796;2022-10-16T09:33:35;7;5;4
44045;PMS7003;29709;52.396;16.796;2022-10-16T09:37:11;6;5;4
44045;PMS7003;29709;52.396;16.796;2022-10-16T09:43:36;6;5;4
44045;PMS7003;29709;52.396;16.796;2022-10-16T09:46:43;6;6;5
44045;PMS7003;29709;52.396;16.796;2022-10-16T09:53:05;4;4;4
44045;PMS7003;29709;52.396;16.796;2022-10-16T09:56:11;6;5;4
44045;PMS7003;29709;52.396;16.796;2022-10-16T09:59:20;5;5;4
44045;PMS7003;29709;52.396;16.796;2022-10-16T10:02:31;7;6;5
44045;PMS7003;29709;52.396;16.796;2022-10-16T10:05:37;5;5;4
44045;PMS7003;29709;52.396;16.796;2022-10-16T10:09:05;5;5;4
44045;PMS7003;29709;52.396;16.796;2022-10-16T10:11:59;4;4;4
44045;PMS7003;29709;52.396;16.796;2022-10-16T10:15:07;6;5;4
44045;PMS7003;29709;52.396;16.796;2022-10-16T10:18:16;6;6;4
44045;PMS7003;29709;52.396;16.796;2022-10-16T10:21:23;6;5;4
44045;PMS7003;29709;52.396;16.796;2022-10-16T10:28:14;7;5;5
44045;PMS7003;29709;52.396;16.796;2022-10-16T10:31:26;6;5;4
44045;PMS7003;29709;52.396;16.796;2022-10-16T10:34:42;4;3;2
44045;PMS7003;29709;52.396;16.796;2022-10-16T10:41:20;4;3;3
44045;PMS7003;29709;52.396;16.796;2022-10-16T10:47:40;6;4;3
44045;PMS7003;29709;52.396;16.796;2022-10-16T11:07:17;6;5;4
44045;PMS7003;29709;52.396;16.796;2022-10-16T11:10:27;6;5;4
44045;PMS7003;29709;52.396;16.796;2022-10-16T11:16:55;6;5;4
44045;PMS7003;29709;52.396;16.796;2022-10-16T11:20:25;3;3;3
44045;PMS7003;29709;52.396;16.796;2022-10-16T11:26:31;3;3;3
44045;PMS7003;29709;52.396;16.796;2022-10-16T11:29:41;3;3;2
44045;PMS7003;29709;52.396;16.796;2022-10-16T11:39:31;6;3;3
44045;PMS7003;29709;52.396;16.796;2022-10-16T11:42:37;4;4;3
44045;PMS7003;29709;52.396;16.796;2022-10-16T11:45:46;4;4;3
44045;PMS7003;29709;52.396;16.796;2022-10-16T11:52:13;5;5;3
44045;PMS7003;29709;52.396;16.796;2022-10-16T11:55:21;5;5;4
44045;PMS7003;29709;52.396;16.796;2022-10-16T12:01:52;3;2;1
44045;PMS7003;29709;52.396;16.796;2022-10-16T12:05:07;6;5;4
44045;PMS7003;29709;52.396;16.796;2022-10-16T12:08:18;3;3;2
44045;PMS7003;29709;52.396;16.796;2022-10-16T12:11:48;2;2;2
44045;PMS7003;29709;52.396;16.796;2022-10-16T12:18:07;3;3;2
44045;PMS7003;29709;52.396;16.796;2022-10-16T12:27:40;1;1;1
44045;PMS7003;29709;52.396;16.796;2022-10-16T12:31:08;1;1;1
44045;PMS7003;29709;52.396;16.796;2022-10-16T12:40:40;1;0;0
44045;PMS7003;29709;52.396;16.796;2022-10-16T12:43:46;0;0;0
44045;PMS7003;29709;52.396;16.796;2022-10-16T12:46:50;1;1;1
44045;PMS7003;29709;52.396;16.796;2022-10-16T12:50:23;3;2;2
44045;PMS7003;29709;52.396;16.796;2022-10-16T12:53:35;1;1;1
44045;PMS7003;29709;52.396;16.796;2022-10-16T13:03:16;2;2;2
44045;PMS7003;29709;52.396;16.796;2022-10-16T13:06:26;0;0;0
44045;PMS7003;29709;52.396;16.796;2022-10-16T13:16:13;5;2;1
44045;PMS7003;29709;52.396;16.796;2022-10-16T13:19:26;5;2;1
44045;PMS7003;29709;52.396;16.796;2022-10-16T13:22:40;2;2;1
44045;PMS7003;29709;52.396;16.796;2022-10-16T13:25:57;2;2;1
44045;PMS7003;29709;52.396;16.796;2022-10-16T13:29:08;3;1;1
44045;PMS7003;29709;52.396;16.796;2022-10-16T13:32:37;2;2;1
44045;PMS7003;29709;52.396;16.796;2022-10-16T13:42:11;3;3;2
44045;PMS7003;29709;52.396;16.796;2022-10-16T13:45:23;3;2;2
44045;PMS7003;29709;52.396;16.796;2022-10-16T13:48:30;1;1;1
44045;PMS7003;29709;52.396;16.796;2022-10-16T13:51:59;3;3;2
44045;PMS7003;29709;52.396;16.796;2022-10-16T13:55:03;3;2;2
44045;PMS7003;29709;52.396;16.796;2022-10-16T13:58:12;2;2;2
44045;PMS7003;29709;52.396;16.796;2022-10-16T14:01:18;2;1;0
44045;PMS7003;29709;52.396;16.796;2022-10-16T14:04:26;3;2;1
44045;PMS7003;29709;52.396;16.796;2022-10-16T14:07:33;3;2;2
44045;PMS7003;29709;52.396;16.796;2022-10-16T14:10:38;3;1;1
44045;PMS7003;29709;52.396;16.796;2022-10-16T14:14:09;1;1;1
44045;PMS7003;29709;52.396;16.796;2022-10-16T14:17:15;2;1;1
44045;PMS7003;29709;52.396;16.796;2022-10-16T14:20:22;2;2;2
44045;PMS7003;29709;52.396;16.796;2022-10-16T14:23:30;4;2;1
44045;PMS7003;29709;52.396;16.796;2022-10-16T14:26:40;3;3;2
44045;PMS7003;29709;52.396;16.796;2022-10-16T14:29:45;4;2;1
44045;PMS7003;29709;52.396;16.796;2022-10-16T14:36:19;2;2;2
44045;PMS7003;29709;52.396;16.796;2022-10-16T14:39:21;2;1;1
44045;PMS7003;29709;52.396;16.796;2022-10-16T14:42:25;0;0;0
44045;PMS7003;29709;52.396;16.796;2022-10-16T14:45:55;1;1;0
44045;PMS7003;29709;52.396;16.796;2022-10-16T14:49:03;1;1;0
44045;PMS7003;29709;52.396;16.796;2022-10-16T14:52:12;2;1;1
44045;PMS7003;29709;52.396;16.796;2022-10-16T14:55:15;1;1;1
44045;PMS7003;29709;52.396;16.796;2022-10-16T14:58:20;1;0;0
44045;PMS7003;29709;52.396;16.796;2022-10-16T15:01:25;1;1;1
44045;PMS7003;29709;52.396;16.796;2022-10-16T15:04:28;1;1;0
44045;PMS7003;29709;52.396;16.796;2022-10-16T15:07:31;1;1;0
44045;PMS7003;29709;52.396;16.796;2022-10-16T15:11:00;2;2;1
44045;PMS7003;29709;52.396;16.796;2022-10-16T15:14:03;2;1;1
44045;PMS7003;29709;52.396;16.796;2022-10-16T15:17:08;1;1;0
44045;PMS7003;29709;52.396;16.796;2022-10-16T15:20:13;0;0;0
44045;PMS7003;29709;52.396;16.796;2022-10-16T15:23:17;1;0;0
44045;PMS7003;29709;52.396;16.796;2022-10-16T15:26:24;0;0;0
44045;PMS7003;29709;52.396;16.796;2022-10-16T15:29:28;0;0;0
44045;PMS7003;29709;52.396;16.796;2022-10-16T15:32:31;0;0;0
44045;PMS7003;29709;52.396;16.796;2022-10-16T15:36:03;2;1;1
44045;PMS7003;29709;52.396;16.796;2022-10-16T15:42:16;3;3;2
44045;PMS7003;29709;52.396;16.796;2022-10-16T15:45:20;2;2;2
44045;PMS7003;29709;52.396;16.796;2022-10-16T15:48:23;3;2;2
44045;PMS7003;29709;52.396;16.796;2022-10-16T15:51:26;2;1;1
44045;PMS7003;29709;52.396;16.796;2022-10-16T15:54:36;1;1;0
44045;PMS7003;29709;52.396;16.796;2022-10-16T15:57:39;4;2;1
44045;PMS7003;29709;52.396;16.796;2022-10-16T16:01:10;2;2;1
44045;PMS7003;29709;52.396;16.796;2022-10-16T16:04:14;2;2;2
44045;PMS7003;29709;52.396;16.796;2022-10-16T16:07:18;3;3;2
44045;PMS7003;29709;52.396;16.796;2022-10-16T16:10:21;3;2;1
44045;PMS7003;29709;52.396;16.796;2022-10-16T16:13:24;2;2;1
44045;PMS7003;29709;52.396;16.796;2022-10-16T16:16:28;4;3;3
44045;PMS7003;29709;52.396;16.796;2022-10-16T16:19:33;4;3;3
44045;PMS7003;29709;52.396;16.796;2022-10-16T16:22:37;5;5;4
44045;PMS7003;29709;52.396;16.796;2022-10-16T16:25:40;12;12;9
44045;PMS7003;29709;52.396;16.796;2022-10-16T16:28:43;8;6;5
44045;PMS7003;29709;52.396;16.796;2022-10-16T16:32:11;21;18;14
44045;PMS7003;29709;52.396;16.796;2022-10-16T16:35:17;16;16;12
44045;PMS7003;29709;52.396;16.796;2022-10-16T16:38:21;24;20;15
44045;PMS7003;29709;52.396;16.796;2022-10-16T16:41:25;20;20;14
44045;PMS7003;29709;52.396;16.796;2022-10-16T16:44:30;18;17;13
44045;PMS7003;29709;52.396;16.796;2022-10-16T16:47:33;18;16;13
44045;PMS7003;29709;52.396;16.796;2022-10-16T16:53:46;26;23;17
44045;PMS7003;29709;52.396;16.796;2022-10-16T16:57:18;26;21;15
44045;PMS7003;29709;52.396;16.796;2022-10-16T17:00:22;22;21;16
44045;PMS7003;29709;52.396;16.796;2022-10-16T17:03:25;21;19;14
44045;PMS7003;29709;52.396;16.796;2022-10-16T17:06:29;24;21;15
44045;PMS7003;29709;52.396;16.796;2022-10-16T17:09:32;18;16;12
44045;PMS7003;29709;52.396;16.796;2022-10-16T17:12:35;18;18;14
44045;PMS7003;29709;52.396;16.796;2022-10-16T17:15:45;21;17;12
44045;PMS7003;29709;52.396;16.796;2022-10-16T17:18:50;21;16;13
44045;PMS7003;29709;52.396;16.796;2022-10-16T17:21:55;16;14;12
44045;PMS7003;29709;52.396;16.796;2022-10-16T17:25:23;19;17;13
44045;PMS7003;29709;52.396;16.796;2022-10-16T17:28:28;20;17;12
44045;PMS7003;29709;52.396;16.796;2022-10-16T17:31:45;21;19;15
44045;PMS7003;29709;52.396;16.796;2022-10-16T17:34:51;19;19;15
44045;PMS7003;29709;52.396;16.796;2022-10-16T17:37:54;23;20;14
44045;PMS7003;29709;52.396;16.796;2022-10-16T17:40:57;22;20;14
44045;PMS7003;29709;52.396;16.796;2022-10-16T17:44:00;21;18;14
44045;PMS7003;29709;52.396;16.796;2022-10-16T17:47:30;21;19;14
44045;PMS7003;29709;52.396;16.796;2022-10-16T17:50:33;20;18;13
44045;PMS7003;29709;52.396;16.796;2022-10-16T17:53:36;22;18;13
44045;PMS7003;29709;52.396;16.796;2022-10-16T17:56:39;18;16;12
44045;PMS7003;29709;52.396;16.796;2022-10-16T17:59:43;17;16;12
44045;PMS7003;29709;52.396;16.796;2022-10-16T18:02:49;19;17;11
44045;PMS7003;29709;52.396;16.796;2022-10-16T18:05:53;18;16;13
44045;PMS7003;29709;52.396;16.796;2022-10-16T18:12:36;15;14;11
44045;PMS7003;29709;52.396;16.796;2022-10-16T18:15:39;15;14;11
44045;PMS7003;29709;52.396;16.796;2022-10-16T18:18:42;15;13;10
44045;PMS7003;29709;52.396;16.796;2022-10-16T18:21:49;13;12;10
44045;PMS7003;29709;52.396;16.796;2022-10-16T18:24:52;12;12;10
44045;PMS7003;29709;52.396;16.796;2022-10-16T18:31:09;13;12;10
44045;PMS7003;29709;52.396;16.796;2022-10-16T18:34:15;14;11;9
44045;PMS7003;29709;52.396;16.796;2022-10-16T18:37:43;12;10;7
44045;PMS7003;29709;52.396;16.796;2022-10-16T18:40:47;10;9;7
44045;PMS7003;29709;52.396;16.796;2022-10-16T18:43:50;14;13;9
44045;PMS7003;29709;52.396;16.796;2022-10-16T18:46:53;8;6;5
44045;PMS7003;29709;52.396;16.796;2022-10-16T18:50:00;13;12;10
44045;PMS7003;29709;52.396;16.796;2022-10-16T18:53:03;13;12;9
44045;PMS7003;29709;52.396;16.796;2022-10-16T18:56:06;15;13;10
44045;PMS7003;29709;52.396;16.796;2022-10-16T18:59:10;17;12;10
44045;PMS7003;29709;52.396;16.796;2022-10-16T19:02:13;15;12;10
44045;PMS7003;29709;52.396;16.796;2022-10-16T19:05:44;15;14;10
44045;PMS7003;29709;52.396;16.796;2022-10-16T19:08:47;29;24;17
44045;PMS7003;29709;52.396;16.796;2022-10-16T19:11:51;21;19;14
44045;PMS7003;29709;52.396;16.796;2022-10-16T19:14:54;29;24;16
44045;PMS7003;29709;52.396;16.796;2022-10-16T19:17:57;27;22;16
44045;PMS7003;29709;52.396;16.796;2022-10-16T19:21:00;23;20;15
44045;PMS7003;29709;52.396;16.796;2022-10-16T19:24:04;26;20;14
44045;PMS7003;29709;52.396;16.796;2022-10-16T19:27:07;27;22;16
44045;PMS7003;29709;52.396;16.796;2022-10-16T19:30:10;21;18;13
44045;PMS7003;29709;52.396;16.796;2022-10-16T19:33:13;24;20;15
44045;PMS7003;29709;52.396;16.796;2022-10-16T19:36:17;24;21;15
44045;PMS7003;29709;52.396;16.796;2022-10-16T19:39:50;25;21;15
44045;PMS7003;29709;52.396;16.796;2022-10-16T19:42:53;23;21;15
44045;PMS7003;29709;52.396;16.796;2022-10-16T19:46:01;28;23;16
44045;PMS7003;29709;52.396;16.796;2022-10-16T19:49:10;25;22;16
44045;PMS7003;29709;52.396;16.796;2022-10-16T19:52:15;26;23;16
44045;PMS7003;29709;52.396;16.796;2022-10-16T19:55:18;27;22;15
44045;PMS7003;29709;52.396;16.796;2022-10-16T19:58:22;24;21;15
44045;PMS7003;29709;52.396;16.796;2022-10-16T20:01:26;23;21;15
44045;PMS7003;29709;52.396;16.796;2022-10-16T20:04:56;9;6;1
44045;PMS7003;29709;52.396;16.796;2022-10-16T20:07:59;26;21;15
44045;PMS7003;29709;52.396;16.796;2022-10-16T20:11:02;22;20;15
44045;PMS7003;29709;52.396;16.796;2022-10-16T20:14:07;24;22;16
44045;PMS7003;29709;52.396;16.796;2022-10-16T20:17:10;30;22;15
44045;PMS7003;29709;52.396;16.796;2022-10-16T20:20:13;29;24;17
44045;PMS7003;29709;52.396;16.796;2022-10-16T20:23:17;25;22;16
44045;PMS7003;29709;52.396;16.796;2022-10-16T20:26:21;24;21;14
44045;PMS7003;29709;52.396;16.796;2022-10-16T20:29:27;22;21;15
44045;PMS7003;29709;52.396;16.796;2022-10-16T20:32:30;23;20;14
44045;PMS7003;29709;52.396;16.796;2022-10-16T20:35:59;30;25;17
44045;PMS7003;29709;52.396;16.796;2022-10-16T20:39:03;32;26;18
44045;PMS7003;29709;52.396;16.796;2022-10-16T20:42:07;26;22;18
44045;PMS7003;29709;52.396;16.796;2022-10-16T20:45:09;26;22;16
44045;PMS7003;29709;52.396;16.796;2022-10-16T20:48:12;28;22;17
44045;PMS7003;29709;52.396;16.796;2022-10-16T20:51:17;22;19;12
44045;PMS7003;29709;52.396;16.796;2022-10-16T20:54:26;26;21;15
44045;PMS7003;29709;52.396;16.796;2022-10-16T21:00:45;33;25;18
44045;PMS7003;29709;52.396;16.796;2022-10-16T21:04:13;32;27;18
44045;PMS7003;29709;52.396;16.796;2022-10-16T21:07:16;32;25;18
44045;PMS7003;29709;52.396;16.796;2022-10-16T21:10:19;32;25;18
44045;PMS7003;29709;52.396;16.796;2022-10-16T21:13:24;31;25;18
44045;PMS7003;29709;52.396;16.796;2022-10-16T21:16:27;33;26;19
44045;PMS7003;29709;52.396;16.796;2022-10-16T21:19:31;34;25;18
44045;PMS7003;29709;52.396;16.796;2022-10-16T21:22:34;36;26;19
44045;PMS7003;29709;52.396;16.796;2022-10-16T21:25:37;32;22;16
44045;PMS7003;29709;52.396;16.796;2022-10-16T21:28:40;29;25;18
44045;PMS7003;29709;52.396;16.796;2022-10-16T21:31:43;33;25;18
44045;PMS7003;29709;52.396;16.796;2022-10-16T21:35:13;31;25;18
44045;PMS7003;29709;52.396;16.796;2022-10-16T21:38:16;28;24;16
44045;PMS7003;29709;52.396;16.796;2022-10-16T21:41:20;31;25;18
44045;PMS7003;29709;52.396;16.796;2022-10-16T21:44:25;35;28;19
44045;PMS7003;29709;52.396;16.796;2022-10-16T21:47:28;30;24;16
44045;PMS7003;29709;52.396;16.796;2022-10-16T21:50:32;26;22;15
44045;PMS7003;29709;52.396;16.796;2022-10-16T21:53:51;32;27;18
44045;PMS7003;29709;52.396;16.796;2022-10-16T21:56:55;30;25;18
44045;PMS7003;29709;52.396;16.796;2022-10-16T21:59:58;32;24;18
44045;PMS7003;29709;52.396;16.796;2022-10-16T22:03:01;29;24;17
44045;PMS7003;29709;52.396;16.796;2022-10-16T22:06:05;32;26;18
44045;PMS7003;29709;52.396;16.796;2022-10-16T22:09:09;32;27;19
44045;PMS7003;29709;52.396;16.796;2022-10-16T22:12:15;29;24;17
44045;PMS7003;29709;52.396;16.796;2022-10-16T22:15:21;32;24;17
44045;PMS7003;29709;52.396;16.796;2022-10-16T22:18:24;29;24;17
44045;PMS7003;29709;52.396;16.796;2022-10-16T22:21:52;26;23;16
44045;PMS7003;29709;52.396;16.796;2022-10-16T22:24:58;28;24;17
44045;PMS7003;29709;52.396;16.796;2022-10-16T22:28:01;26;23;16
44045;PMS7003;29709;52.396;16.796;2022-10-16T22:31:05;29;24;17
44045;PMS7003;29709;52.396;16.796;2022-10-16T22:34:13;28;24;16
44045;PMS7003;29709;52.396;16.796;2022-10-16T22:37:16;29;22;16
44045;PMS7003;29709;52.396;16.796;2022-10-16T22:40:19;27;23;16
44045;PMS7003;29709;52.396;16.796;2022-10-16T22:43:22;29;23;16
44045;PMS7003;29709;52.396;16.796;2022-10-16T22:46:26;27;23;16
44045;PMS7003;29709;52.396;16.796;2022-10-16T22:49:57;28;23;16
44045;PMS7003;29709;52.396;16.796;2022-10-16T22:53:00;30;24;17
44045;PMS7003;29709;52.396;16.796;2022-10-16T22:56:03;31;24;17
44045;PMS7003;29709;52.396;16.796;2022-10-16T22:59:06;29;24;17
44045;PMS7003;29709;52.396;16.796;2022-10-16T23:02:10;27;23;15
44045;PMS7003;29709;52.396;16.796;2022-10-16T23:05:13;21;18;13
44045;PMS7003;29709;52.396;16.796;2022-10-16T23:08:16;28;21;14
44045;PMS7003;29709;52.396;16.796;2022-10-16T23:11:19;24;21;14
44045;PMS7003;29709;52.396;16.796;2022-10-16T23:14:23;28;24;18